createdAt,value
2019-06-10T00:00:16.486Z,101327.22
2019-06-10T00:02:50.653Z,101328.33
2019-06-10T00:05:21.588Z,101322.58
2019-06-10T00:07:52.497Z,101315.52
2019-06-10T00:10:23.577Z,101308.95
2019-06-10T00:12:55.472Z,101310.02
2019-06-10T00:15:27.402Z,101309.46
2019-06-10T00:18:20.886Z,101311.63
2019-06-10T00:20:30.783Z,101306.69
2019-06-10T00:23:02.533Z,101308.05
2019-06-10T00:25:33.720Z,101302.59
2019-06-10T00:28:05.811Z,101302.03
2019-06-10T00:30:36.937Z,101296.55
2019-06-10T00:33:08.062Z,101299.02
2019-06-10T00:35:41.193Z,101297.95
2019-06-10T00:38:14.411Z,101295.23
2019-06-10T00:40:45.621Z,101291.15
2019-06-10T00:43:16.379Z,101290.05
2019-06-10T00:45:47.075Z,101288.98
2019-06-10T00:48:28.307Z,101290.60
2019-06-10T00:50:51.771Z,101290.91
2019-06-10T00:53:22.667Z,101294.99
2019-06-10T00:55:53.349Z,101292.56
2019-06-10T00:58:23.795Z,101289.04
2019-06-10T01:00:54.204Z,101291.77
2019-06-10T01:03:25.003Z,101290.11
2019-06-10T01:05:55.597Z,101285.51
2019-06-10T01:08:26.472Z,101281.13
2019-06-10T01:10:57.390Z,101283.05
2019-06-10T01:13:27.904Z,101281.98
2019-06-10T01:15:58.306Z,101280.33
2019-06-10T01:18:35.671Z,101276.23
2019-06-10T01:21:01.954Z,101282.48
2019-06-10T01:23:32.958Z,101277.59
2019-06-10T01:26:03.606Z,101283.03
2019-06-10T01:28:34.124Z,101281.67
2019-06-10T01:31:08.510Z,101280.83
2019-06-10T01:33:37.200Z,101282.43
2019-06-10T01:36:07.791Z,101282.94
2019-06-10T01:38:40.810Z,101287.01
2019-06-10T01:41:12.417Z,101282.62
2019-06-10T01:43:44.114Z,101288.02
2019-06-10T01:46:16.280Z,101284.48
2019-06-10T01:48:48.559Z,101287.99
2019-06-10T01:51:21.324Z,101292.88
2019-06-10T01:53:51.744Z,101284.16
2019-06-10T01:56:22.108Z,101285.77
2019-06-10T01:58:53.513Z,101282.48
2019-06-10T02:01:46.316Z,101278.09
2019-06-10T02:04:18.120Z,101276.18
2019-06-10T02:06:51.134Z,101279.45
2019-06-10T02:09:23.166Z,101279.20
2019-06-10T02:11:53.815Z,101272.41
2019-06-10T02:14:24.668Z,101273.47
2019-06-10T02:16:55.629Z,101273.71
2019-06-10T02:19:26.329Z,101264.14
2019-06-10T02:21:56.849Z,101262.22
2019-06-10T02:24:27.286Z,101261.67
2019-06-10T02:26:57.800Z,101259.20
2019-06-10T02:29:30.624Z,101255.42
2019-06-10T02:32:04.492Z,101255.41
2019-06-10T02:34:34.109Z,101245.34
2019-06-10T02:37:05.119Z,101248.88
2019-06-10T02:39:39.070Z,101237.44
2019-06-10T02:42:17.271Z,101241.20
2019-06-10T02:44:46.073Z,101231.41
2019-06-10T02:47:20.382Z,101236.81
2019-06-10T02:49:59.113Z,101227.58
2019-06-10T02:52:29.298Z,101233.28
2019-06-10T02:54:53.914Z,101226.48
2019-06-10T02:57:30.415Z,101222.66
2019-06-10T02:59:56.472Z,101221.03
2019-06-10T03:02:31.499Z,101221.02
2019-06-10T03:05:00.356Z,101219.36
2019-06-10T03:07:35.265Z,101218.55
2019-06-10T03:10:04.756Z,101214.72
2019-06-10T03:12:35.592Z,101213.06
2019-06-10T03:15:06.578Z,101211.15
2019-06-10T03:17:38.282Z,101214.72
2019-06-10T03:20:09.183Z,101214.42
2019-06-10T03:22:42.137Z,101216.34
2019-06-10T03:25:13.113Z,101213.91
2019-06-10T03:27:43.806Z,101212.80
2019-06-10T03:30:20.574Z,101211.12
2019-06-10T03:32:47.645Z,101210.55
2019-06-10T03:35:19.282Z,101209.98
2019-06-10T03:37:52.786Z,101209.42
2019-06-10T03:40:24.964Z,101204.27
2019-06-10T03:42:55.661Z,101206.42
2019-06-10T03:45:28.384Z,101204.55
2019-06-10T03:48:00.538Z,101198.27
2019-06-10T03:50:32.462Z,101195.55
2019-06-10T03:53:05.410Z,101190.95
2019-06-10T03:55:35.979Z,101192.87
2019-06-10T03:58:06.841Z,101188.80
2019-06-10T04:00:37.645Z,101191.78
2019-06-10T04:03:08.339Z,101181.15
2019-06-10T04:05:38.958Z,101182.52
2019-06-10T04:08:09.857Z,101186.33
2019-06-10T04:10:42.887Z,101188.48
2019-06-10T04:13:13.301Z,101185.77
2019-06-10T04:15:44.122Z,101180.33
2019-06-10T04:18:14.592Z,101179.78
2019-06-10T04:20:45.067Z,101179.23
2019-06-10T04:23:15.849Z,101176.81
2019-06-10T04:25:46.458Z,101179.53
2019-06-10T04:28:19.786Z,101171.64
2019-06-10T04:30:53.071Z,101173.80
2019-06-10T04:33:27.650Z,101175.45
2019-06-10T04:35:58.597Z,101174.11
2019-06-10T04:38:29.222Z,101176.02
2019-06-10T04:41:00.056Z,101178.17
2019-06-10T04:43:32.573Z,101170.81
2019-06-10T04:46:04.594Z,101164.84
2019-06-10T04:48:35.409Z,101166.45
2019-06-10T04:51:06.098Z,101163.22
2019-06-10T04:53:40.248Z,101170.28
2019-06-10T04:56:12.101Z,101149.90
2019-06-10T04:58:43.330Z,101155.88
2019-06-10T05:01:14.199Z,101157.50
2019-06-10T05:03:44.758Z,101160.77
2019-06-10T05:06:16.229Z,101157.79
2019-06-10T05:08:46.827Z,101162.94
2019-06-10T05:11:17.398Z,101154.83
2019-06-10T05:13:49.044Z,101151.02
2019-06-10T05:16:19.684Z,101151.30
2019-06-10T05:18:52.402Z,101153.74
2019-06-10T05:21:25.017Z,101148.05
2019-06-10T05:23:55.105Z,101145.09
2019-06-10T05:26:27.203Z,101149.72
2019-06-10T05:28:58.078Z,101144.84
2019-06-10T05:31:31.014Z,101143.74
2019-06-10T05:34:02.351Z,101141.58
2019-06-10T05:36:34.976Z,101135.37
2019-06-10T05:39:07.603Z,101142.73
2019-06-10T05:41:38.569Z,101135.40
2019-06-10T05:44:09.477Z,101135.41
2019-06-10T05:46:39.987Z,101135.15
2019-06-10T05:49:12.482Z,101135.44
2019-06-10T05:51:43.498Z,101135.15
2019-06-10T05:54:14.501Z,101139.79
2019-06-10T05:56:45.263Z,101138.73
2019-06-10T05:59:25.868Z,101141.73
2019-06-10T06:01:57.173Z,101132.48
2019-06-10T06:04:28.073Z,101131.41
2019-06-10T06:06:58.898Z,101130.56
2019-06-10T06:09:32.327Z,101131.41
2019-06-10T06:12:02.590Z,101132.27
2019-06-10T06:14:34.723Z,101134.94
2019-06-10T06:17:05.879Z,101134.64
2019-06-10T06:19:38.456Z,101132.47
2019-06-10T06:22:09.944Z,101126.48
2019-06-10T06:24:42.642Z,101127.84
2019-06-10T06:27:13.239Z,101126.23
2019-06-10T06:29:43.807Z,101133.62
2019-06-10T06:32:14.365Z,101128.48
2019-06-10T06:34:44.936Z,101123.89
2019-06-10T06:37:15.466Z,101116.03
2019-06-10T06:39:46.370Z,101120.70
2019-06-10T06:42:16.871Z,101127.20
2019-06-10T06:44:47.298Z,101128.30
2019-06-10T06:47:17.805Z,101127.20
2019-06-10T06:49:48.928Z,101125.03
2019-06-10T06:52:35.367Z,101127.75
2019-06-10T06:54:53.057Z,101125.29
2019-06-10T06:57:23.821Z,101119.52
2019-06-10T06:59:54.432Z,101119.52
2019-06-10T07:02:25.635Z,101124.40
2019-06-10T07:04:56.115Z,101123.85
2019-06-10T07:07:27.344Z,101121.43
2019-06-10T07:10:00.450Z,101121.38
2019-06-10T07:12:33.749Z,101115.65
2019-06-10T07:15:06.254Z,101116.16
2019-06-10T07:17:39.038Z,101114.55
2019-06-10T07:20:12.519Z,101115.35
2019-06-10T07:22:46.262Z,101113.77
2019-06-10T07:25:15.660Z,101114.63
2019-06-10T07:27:46.962Z,101108.63
2019-06-10T07:30:17.902Z,101107.48
2019-06-10T07:32:49.264Z,101107.23
2019-06-10T07:35:22.053Z,101103.15
2019-06-10T07:37:53.327Z,101100.91
2019-06-10T07:40:24.035Z,101108.77
2019-06-10T07:42:54.733Z,101102.25
2019-06-10T07:45:25.235Z,101098.98
2019-06-10T07:47:55.924Z,101091.63
2019-06-10T07:50:26.673Z,101094.91
2019-06-10T07:52:57.158Z,101096.27
2019-06-10T07:55:28.882Z,101099.53
2019-06-10T07:57:59.572Z,101101.20
2019-06-10T08:00:30.414Z,101096.56
2019-06-10T08:03:02.442Z,101094.40
2019-06-10T08:05:34.243Z,101098.73
2019-06-10T08:08:05.287Z,101090.87
2019-06-10T08:10:37.134Z,101089.73
2019-06-10T08:13:07.861Z,101082.94
2019-06-10T08:15:39.737Z,101087.05
2019-06-10T08:18:12.980Z,101081.61
2019-06-10T08:20:47.636Z,101076.13
2019-06-10T08:23:20.429Z,101082.13
2019-06-10T08:25:56.558Z,101080.50
2019-06-10T08:28:24.450Z,101075.02
2019-06-10T08:30:55.857Z,101076.64
2019-06-10T08:33:26.865Z,101072.84
2019-06-10T08:36:00.621Z,101075.56
2019-06-10T08:38:32.706Z,101068.77
2019-06-10T08:41:03.558Z,101068.47
2019-06-10T08:43:34.542Z,101067.37
2019-06-10T08:46:05.376Z,101064.14
2019-06-10T08:48:37.237Z,101064.44
2019-06-10T08:51:08.256Z,101065.00
2019-06-10T08:53:39.473Z,101060.91
2019-06-10T08:56:12.812Z,101063.34
2019-06-10T08:58:46.350Z,101060.10
2019-06-10T09:01:15.408Z,101064.13
2019-06-10T09:03:48.834Z,101053.22
2019-06-10T09:06:18.434Z,101051.31
2019-06-10T09:08:51.285Z,101046.42
2019-06-10T09:11:24.019Z,101053.22
2019-06-10T09:13:54.801Z,101054.88
2019-06-10T09:16:25.282Z,101045.88
2019-06-10T09:18:56.093Z,101051.60
2019-06-10T09:21:27.956Z,101047.53
2019-06-10T09:24:03.497Z,101038.82
2019-06-10T09:26:33.889Z,101035.59
2019-06-10T09:29:05.471Z,101042.69
2019-06-10T09:31:36.032Z,101041.03
2019-06-10T09:34:07.568Z,101032.84
2019-06-10T09:36:38.128Z,101035.59
2019-06-10T09:39:08.932Z,101037.45
2019-06-10T09:41:43.229Z,101028.70
2019-06-10T09:44:12.908Z,101031.98
2019-06-10T09:46:47.808Z,101023.56
2019-06-10T09:49:19.320Z,101025.19
2019-06-10T09:51:54.830Z,101020.30
2019-06-10T09:54:23.340Z,101018.14
2019-06-10T09:56:54.658Z,101018.69
2019-06-10T09:59:25.457Z,101017.07
2019-06-10T10:02:00.008Z,101021.15
2019-06-10T10:04:28.562Z,101016.22
2019-06-10T10:06:59.365Z,101017.84
2019-06-10T10:09:33.568Z,101023.02
2019-06-10T10:12:05.905Z,101017.03
2019-06-10T10:14:38.108Z,101008.87
2019-06-10T10:17:09.348Z,101012.65
2019-06-10T10:19:40.085Z,101001.78
2019-06-10T10:22:13.954Z,101000.42
2019-06-10T10:24:44.576Z,100996.89
2019-06-10T10:27:16.509Z,100992.81
2019-06-10T10:29:50.309Z,100996.38
2019-06-10T10:32:22.229Z,100993.63
2019-06-10T10:34:56.273Z,100989.00
2019-06-10T10:37:25.562Z,100979.52
2019-06-10T10:39:57.286Z,100984.41
2019-06-10T10:42:41.623Z,100975.96
2019-06-10T10:45:02.672Z,100974.05
2019-06-10T10:47:33.950Z,100970.23
2019-06-10T10:50:05.013Z,100965.89
2019-06-10T10:52:35.678Z,100965.59
2019-06-10T10:55:08.868Z,100960.71
2019-06-10T10:57:39.626Z,100953.08
2019-06-10T11:00:12.498Z,100953.37
2019-06-10T11:02:44.955Z,100949.00
2019-06-10T11:05:33.774Z,100949.80
2019-06-10T11:08:06.053Z,100946.53
2019-06-10T11:10:37.972Z,100948.69
2019-06-10T11:13:12.129Z,100942.70
2019-06-10T11:15:45.781Z,100941.34
2019-06-10T11:18:16.622Z,100936.98
2019-06-10T11:20:47.408Z,100929.93
2019-06-10T11:23:17.950Z,100929.08
2019-06-10T11:25:53.191Z,100929.08
2019-06-10T11:28:22.901Z,100924.19
2019-06-10T11:30:56.876Z,100921.19
2019-06-10T11:33:29.325Z,100920.38
2019-06-10T11:36:02.657Z,100924.44
2019-06-10T11:38:33.254Z,100919.81
2019-06-10T11:41:04.357Z,100921.69
2019-06-10T11:43:35.765Z,100922.23
2019-06-10T11:46:07.626Z,100922.23
2019-06-10T11:48:38.971Z,100925.50
2019-06-10T11:51:12.725Z,100925.24
2019-06-10T11:53:44.052Z,100926.60
2019-06-10T11:56:14.508Z,100923.84
2019-06-10T11:58:44.962Z,100910.52
2019-06-10T12:01:16.020Z,100910.22
2019-06-10T12:03:46.806Z,100909.39
2019-06-10T12:06:18.672Z,100906.39
2019-06-10T12:08:49.157Z,100911.81
2019-06-10T12:11:22.836Z,100900.66
2019-06-10T12:13:57.749Z,100904.72
2019-06-10T12:18:58.629Z,100896.31
2019-06-10T12:21:32.884Z,100898.17
2019-06-10T12:24:02.910Z,100889.98
2019-06-10T12:26:33.683Z,100890.52
2019-06-10T12:29:05.828Z,100887.01
2019-06-10T12:31:37.117Z,100881.25
2019-06-10T12:34:08.351Z,100882.92
2019-06-10T12:36:41.861Z,100884.84
2019-06-10T12:39:15.680Z,100888.67
2019-06-10T12:41:45.556Z,100876.16
2019-06-10T12:44:16.789Z,100880.78
2019-06-10T12:46:47.822Z,100877.77
2019-06-10T12:49:19.007Z,100865.00
2019-06-10T12:51:52.890Z,100863.94
2019-06-10T12:54:23.326Z,100866.91
2019-06-10T12:56:55.290Z,100861.70
2019-06-10T12:59:27.157Z,100867.37
2019-06-10T13:02:01.737Z,100862.50
2019-06-10T13:04:31.444Z,100861.13
2019-06-10T13:07:05.726Z,100861.67
2019-06-10T13:09:38.475Z,100857.06
2019-06-10T13:12:09.370Z,100849.46
2019-06-10T13:14:42.916Z,100857.30
2019-06-10T13:17:13.173Z,100856.20
2019-06-10T13:19:44.202Z,100855.69
2019-06-10T13:22:16.112Z,100851.06
2019-06-10T13:24:47.297Z,100848.86
2019-06-10T13:27:18.206Z,100847.76
2019-06-10T13:29:49.153Z,100849.66
2019-06-10T13:32:19.858Z,100844.53
2019-06-10T13:34:52.642Z,100838.00
2019-06-10T13:37:22.914Z,100828.14
2019-06-10T13:39:53.433Z,100825.12
2019-06-10T13:42:24.339Z,100829.97
2019-06-10T13:44:54.999Z,100821.27
2019-06-10T13:47:26.200Z,100824.70
2019-06-10T13:49:56.905Z,100816.17
2019-06-10T13:52:27.388Z,100818.30
2019-06-10T13:54:58.690Z,100817.73
2019-06-10T13:57:29.222Z,100820.13
2019-06-10T14:00:02.740Z,100819.02
2019-06-10T14:02:32.408Z,100817.66
2019-06-10T14:05:08.285Z,100813.62
2019-06-10T14:07:35.197Z,100818.23
2019-06-10T14:10:10.829Z,100808.19
2019-06-10T14:12:39.039Z,100808.48
2019-06-10T14:15:12.185Z,100796.00
2019-06-10T14:17:45.332Z,100796.30
2019-06-10T14:20:16.286Z,100798.47
2019-06-10T14:22:46.683Z,100795.48
2019-06-10T14:25:18.515Z,100788.67
2019-06-10T14:27:49.123Z,100789.22
2019-06-10T14:30:20.017Z,100790.02
2019-06-10T14:32:52.785Z,100786.19
2019-06-10T14:35:22.981Z,100786.48
2019-06-10T14:37:54.024Z,100784.28
2019-06-10T14:40:25.725Z,100781.33
2019-06-10T14:42:56.428Z,100780.52
2019-06-10T14:45:26.977Z,100778.87
2019-06-10T14:47:58.809Z,100772.39
2019-06-10T14:50:32.413Z,100774.84
2019-06-10T14:53:03.092Z,100769.43
2019-06-10T14:55:34.140Z,100770.25
2019-06-10T14:58:05.387Z,100764.58
2019-06-10T15:00:37.388Z,100764.33
2019-06-10T15:03:09.461Z,100764.34
2019-06-10T15:05:43.158Z,100764.35
2019-06-10T15:08:15.431Z,100763.29
2019-06-10T15:10:45.397Z,100760.83
2019-06-10T15:13:16.170Z,100756.21
2019-06-10T15:15:47.609Z,100748.08
2019-06-10T15:18:20.615Z,100752.97
2019-06-10T15:20:53.452Z,100744.83
2019-06-10T15:23:24.256Z,100745.69
2019-06-10T15:25:57.064Z,100740.83
2019-06-10T15:28:27.350Z,100740.83
2019-06-10T15:30:57.918Z,100742.69
2019-06-10T15:33:28.334Z,100739.47
2019-06-10T15:35:59.069Z,100735.95
2019-06-10T15:38:32.534Z,100736.52
2019-06-10T15:41:02.536Z,100727.55
2019-06-10T15:43:33.267Z,100730.00
2019-06-10T15:46:03.942Z,100725.39
2019-06-10T15:48:34.772Z,100729.20
2019-06-10T15:51:05.480Z,100719.46
2019-06-10T15:53:35.922Z,100721.92
2019-06-10T15:56:16.896Z,100718.66
2019-06-10T15:58:39.324Z,100714.05
2019-06-10T16:01:12.046Z,100719.22
2019-06-10T16:03:42.588Z,100696.98
2019-06-10T16:06:13.894Z,100695.12
2019-06-10T16:08:45.715Z,100690.50
2019-06-10T16:11:18.310Z,100683.44
2019-06-10T16:13:48.490Z,100686.44
2019-06-10T16:16:19.318Z,100682.12
2019-06-10T16:18:50.020Z,100679.12
2019-06-10T16:21:21.912Z,100678.33
2019-06-10T16:23:53.297Z,100679.41
2019-06-10T16:26:26.780Z,100676.97
2019-06-10T16:28:56.748Z,100671.29
2019-06-10T16:31:27.753Z,100672.64
2019-06-10T16:33:58.653Z,100669.39
2019-06-10T16:36:32.129Z,100670.48
2019-06-10T16:39:03.441Z,100666.67
2019-06-10T16:41:35.669Z,100659.64
2019-06-10T16:44:06.326Z,100651.51
2019-06-10T16:46:37.048Z,100645.53
2019-06-10T16:49:07.776Z,100643.38
2019-06-10T16:51:38.419Z,100636.34
2019-06-10T16:54:09.228Z,100629.05
2019-06-10T16:56:39.887Z,100633.37
2019-06-10T16:59:12.316Z,100637.19
2019-06-10T17:01:43.954Z,100632.05
2019-06-10T17:04:14.845Z,100629.34
2019-06-10T17:06:45.461Z,100620.40
2019-06-10T17:09:16.408Z,100622.05
2019-06-10T17:11:47.105Z,100620.98
2019-06-10T17:14:20.077Z,100622.34
2019-06-10T17:16:52.803Z,100615.84
2019-06-10T17:19:26.692Z,100616.10
2019-06-10T17:21:55.769Z,100604.18
2019-06-10T17:24:27.669Z,100610.70
2019-06-10T17:26:58.561Z,100607.18
2019-06-10T17:29:30.616Z,100604.17
2019-06-10T17:32:02.811Z,100596.33
2019-06-10T17:34:34.165Z,100592.25
2019-06-10T17:37:05.407Z,100589.30
2019-06-10T17:39:36.093Z,100587.69
2019-06-10T17:42:17.471Z,100596.63
2019-06-10T17:44:47.996Z,100597.45
2019-06-10T17:47:18.890Z,100589.86
2019-06-10T17:49:50.058Z,100577.38
2019-06-10T17:52:21.955Z,100567.06
2019-06-10T17:54:54.362Z,100571.68
2019-06-10T17:57:27.086Z,100574.66
2019-06-10T17:59:59.455Z,100570.59
2019-06-10T18:02:31.201Z,100564.61
2019-06-10T18:05:03.217Z,100567.34
2019-06-10T18:07:35.757Z,100580.38
2019-06-10T18:10:07.182Z,100584.45
2019-06-10T18:12:37.728Z,100577.39
2019-06-10T18:15:08.594Z,100573.84
2019-06-10T18:17:39.528Z,100537.44
2019-06-10T18:20:13.340Z,100561.63
2019-06-10T18:22:42.584Z,100568.38
2019-06-10T18:25:13.382Z,100565.14
2019-06-10T18:27:45.424Z,100561.08
2019-06-10T18:30:16.508Z,100559.42
2019-06-10T18:32:47.171Z,100568.39
2019-06-10T18:35:18.034Z,100568.38
2019-06-10T18:37:48.764Z,100565.95
2019-06-10T18:40:20.442Z,100562.39
2019-06-10T18:42:52.289Z,100560.23
2019-06-10T18:45:23.302Z,100558.61
2019-06-10T18:47:54.076Z,100554.53
2019-06-10T18:50:26.231Z,100561.03
2019-06-10T18:53:00.360Z,100566.20
2019-06-10T18:55:34.172Z,100563.22
2019-06-10T18:58:03.767Z,100555.06
2019-06-10T19:00:53.496Z,100559.13
2019-06-10T19:03:12.475Z,100556.67
2019-06-10T19:05:39.464Z,100552.06
2019-06-10T19:08:10.311Z,100544.72
2019-06-10T19:10:43.182Z,100547.14
2019-06-10T19:13:13.492Z,100546.05
2019-06-10T19:15:44.857Z,100542.52
2019-06-10T19:18:15.681Z,100538.44
2019-06-10T19:20:46.328Z,100536.77
2019-06-10T19:23:17.389Z,100522.91
2019-06-10T19:25:48.300Z,100521.55
2019-06-10T19:28:19.124Z,100519.34
2019-06-10T19:30:49.697Z,100513.88
2019-06-10T19:33:23.230Z,100518.48
2019-06-10T19:35:53.391Z,100508.17
2019-06-10T19:38:23.989Z,100512.52
2019-06-10T19:40:55.001Z,100508.16
2019-06-10T19:43:25.651Z,100507.86
2019-06-10T19:45:56.160Z,100501.89
2019-06-10T19:48:26.867Z,100497.00
2019-06-10T19:50:57.450Z,100497.83
2019-06-10T19:53:27.950Z,100498.38
2019-06-10T19:55:58.509Z,100502.46
2019-06-10T19:58:32.350Z,100497.84
2019-06-10T20:01:05.809Z,100498.66
2019-06-10T20:03:37.658Z,100502.18
2019-06-10T20:06:08.387Z,100501.36
2019-06-10T20:08:40.026Z,100490.78
2019-06-10T20:11:12.380Z,100497.03
2019-06-10T20:13:43.717Z,100498.63
2019-06-10T20:16:16.771Z,100501.91
2019-06-10T20:18:49.682Z,100501.91
2019-06-10T20:21:22.568Z,100492.66
2019-06-10T20:23:52.991Z,100494.02
2019-06-10T20:26:23.701Z,100492.13
2019-06-10T20:28:55.431Z,100489.13
2019-06-10T20:31:26.165Z,100492.91
2019-06-10T20:33:56.974Z,100482.05
2019-06-10T20:36:27.541Z,100474.98
2019-06-10T20:38:58.078Z,100473.34
2019-06-10T20:41:28.793Z,100473.34
2019-06-10T20:43:59.352Z,100480.45
2019-06-10T20:46:32.248Z,100492.95
2019-06-10T20:49:03.333Z,100484.79
2019-06-10T20:51:48.687Z,100485.87
2019-06-10T20:54:07.057Z,100487.47
2019-06-10T20:56:38.614Z,100493.48
2019-06-10T20:59:09.164Z,100504.08
2019-06-10T21:01:43.252Z,100512.52
2019-06-10T21:04:13.263Z,100540.25
2019-06-10T21:06:45.958Z,100544.03
2019-06-10T21:09:22.479Z,100554.91
2019-06-10T21:11:54.365Z,100547.81
2019-06-10T21:14:25.417Z,100541.84
2019-06-10T21:16:56.171Z,100546.70
2019-06-10T21:19:27.413Z,100539.13
2019-06-10T21:21:57.970Z,100527.42
2019-06-10T21:24:28.689Z,100537.23
2019-06-10T21:26:59.429Z,100545.92
2019-06-10T21:29:32.180Z,100531.28
2019-06-10T21:32:03.747Z,100527.51
2019-06-10T21:34:34.346Z,100535.70
2019-06-10T21:37:04.865Z,100520.52
2019-06-10T21:39:35.275Z,100525.44
2019-06-10T21:42:05.789Z,100540.92
2019-06-10T21:44:36.412Z,100540.38
2019-06-10T21:47:07.205Z,100515.13
2019-06-10T21:49:37.790Z,100508.06
2019-06-10T21:52:08.528Z,100520.59
2019-06-10T21:54:39.144Z,100534.45
2019-06-10T21:57:09.701Z,100535.55
2019-06-10T21:59:43.900Z,100537.47
2019-06-10T22:02:15.206Z,100530.95
2019-06-10T22:04:46.674Z,100525.27
2019-06-10T22:07:18.385Z,100517.39
2019-06-10T22:09:53.140Z,100516.05
2019-06-10T22:12:23.097Z,100512.51
2019-06-10T22:14:54.664Z,100508.98
2019-06-10T22:17:25.318Z,100517.38
2019-06-10T22:19:56.454Z,100505.98
2019-06-10T22:22:26.992Z,100510.05
2019-06-10T22:24:57.699Z,100509.25
2019-06-10T22:27:28.448Z,100511.70
2019-06-10T22:29:59.126Z,100503.83
2019-06-10T22:32:32.235Z,100497.84
2019-06-10T22:35:02.992Z,100504.11
2019-06-10T22:37:33.952Z,100499.20
2019-06-10T22:40:04.584Z,100501.39
2019-06-10T22:42:35.179Z,100502.47
2019-06-10T22:45:06.041Z,100501.37
2019-06-10T22:47:36.521Z,100501.37
2019-06-10T22:50:08.169Z,100497.59
2019-06-10T22:52:38.786Z,100495.13
2019-06-10T22:55:09.677Z,100504.63
2019-06-10T22:57:43.976Z,100504.38
2019-06-10T23:00:14.141Z,100504.38
2019-06-10T23:02:44.611Z,100501.66
2019-06-10T23:05:17.422Z,100501.37
2019-06-10T23:07:48.250Z,100507.63
2019-06-10T23:10:18.906Z,100495.42
2019-06-10T23:12:50.573Z,100482.11
2019-06-10T23:15:23.513Z,100469.91
2019-06-10T23:17:56.745Z,100472.58
2019-06-10T23:20:27.262Z,100471.53
2019-06-10T23:22:59.152Z,100470.97
2019-06-10T23:25:32.511Z,100470.70
2019-06-10T23:28:02.259Z,100472.88
2019-06-10T23:30:33.137Z,100473.42
2019-06-10T23:33:03.917Z,100473.94
2019-06-10T23:35:34.454Z,100471.23
2019-06-10T23:38:05.406Z,100467.70
2019-06-10T23:40:37.728Z,100463.38
2019-06-10T23:43:08.148Z,100459.30
2019-06-10T23:45:38.624Z,100462.84
2019-06-10T23:48:09.025Z,100451.45
2019-06-10T23:50:39.886Z,100451.44
2019-06-10T23:53:13.244Z,100447.63
2019-06-10T23:55:43.012Z,100452.80
2019-06-10T23:58:13.744Z,100460.91
